Zhigulevsk, Russia
Current Conditions -  °F | °C
As of 5:00 AM on Sunday 23 Nov 2014 (Local Time) from UWWW Reporting Station
Haze Haze  
Wind Chill:   Ceiling: Unl
Heat Index: 19°   Visibility: 2.2mi
Dew Point: 14°   Wind: 9mph
Humidity: 80%   Direction: 270°W
Pressure: 30.12"   Gusts: NA
Location:  53.35°N, 49.79°E
Report Text: UWWW 230100Z 27004MPS 3600 BR NSC M07/M10 Q1020 23CLRD6015//99// NOSIG RMK QFE754/1005
Loading
Personal Weather Stations






























Interactive Weather Map New forecast layout! Learn more

10-Day Weather Forecast

Advertisements
Track Severe Weather on mobile